sensor_id;sensor_type;location;lat;lon;timestamp;P1;durP1;ratioP1;P2;durP2;ratioP2
2404;SDS011;1213;43.206;27.922;2023-05-18T00:02:01;2.70;;;1.60;;
2404;SDS011;1213;43.206;27.922;2023-05-18T00:04:28;10.77;;;2.20;;
2404;SDS011;1213;43.206;27.922;2023-05-18T00:06:53;5.00;;;1.93;;
2404;SDS011;1213;43.206;27.922;2023-05-18T00:09:25;1.60;;;1.43;;
2404;SDS011;1213;43.206;27.922;2023-05-18T00:11:51;5.30;;;1.57;;
2404;SDS011;1213;43.206;27.922;2023-05-18T00:14:16;8.40;;;2.60;;
2404;SDS011;1213;43.206;27.922;2023-05-18T00:16:41;1.73;;;1.63;;
2404;SDS011;1213;43.206;27.922;2023-05-18T00:19:07;6.57;;;1.87;;
2404;SDS011;1213;43.206;27.922;2023-05-18T00:21:32;2.13;;;1.60;;
2404;SDS011;1213;43.206;27.922;2023-05-18T00:23:59;3.27;;;1.97;;
2404;SDS011;1213;43.206;27.922;2023-05-18T00:26:24;1.60;;;1.50;;
2404;SDS011;1213;43.206;27.922;2023-05-18T00:28:50;2.90;;;1.73;;
2404;SDS011;1213;43.206;27.922;2023-05-18T00:31:15;2.90;;;2.00;;
2404;SDS011;1213;43.206;27.922;2023-05-18T00:33:41;4.80;;;2.20;;
2404;SDS011;1213;43.206;27.922;2023-05-18T00:36:06;2.07;;;1.80;;
2404;SDS011;1213;43.206;27.922;2023-05-18T00:38:31;3.53;;;1.87;;
2404;SDS011;1213;43.206;27.922;2023-05-18T00:40:57;8.40;;;2.07;;
2404;SDS011;1213;43.206;27.922;2023-05-18T00:43:22;1.93;;;1.83;;
2404;SDS011;1213;43.206;27.922;2023-05-18T00:45:48;2.13;;;1.57;;
2404;SDS011;1213;43.206;27.922;2023-05-18T00:48:13;1.50;;;1.40;;
2404;SDS011;1213;43.206;27.922;2023-05-18T00:50:38;3.30;;;2.10;;
2404;SDS011;1213;43.206;27.922;2023-05-18T00:53:04;5.23;;;1.80;;
2404;SDS011;1213;43.206;27.922;2023-05-18T00:55:29;2.07;;;1.30;;
2404;SDS011;1213;43.206;27.922;2023-05-18T00:57:57;2.90;;;1.80;;
2404;SDS011;1213;43.206;27.922;2023-05-18T01:00:26;3.20;;;1.57;;
2404;SDS011;1213;43.206;27.922;2023-05-18T01:02:52;3.03;;;1.67;;
2404;SDS011;1213;43.206;27.922;2023-05-18T01:05:17;1.70;;;1.60;;
2404;SDS011;1213;43.206;27.922;2023-05-18T01:07:44;1.63;;;1.50;;
2404;SDS011;1213;43.206;27.922;2023-05-18T01:10:10;2.47;;;1.90;;
2404;SDS011;1213;43.206;27.922;2023-05-18T01:12:55;5.73;;;2.13;;
2404;SDS011;1213;43.206;27.922;2023-05-18T01:15:22;3.27;;;1.40;;
2404;SDS011;1213;43.206;27.922;2023-05-18T01:28:07;2.70;;;1.70;;
2404;SDS011;1213;43.206;27.922;2023-05-18T01:30:37;3.93;;;2.20;;
2404;SDS011;1213;43.206;27.922;2023-05-18T01:33:07;2.20;;;1.30;;
2404;SDS011;1213;43.206;27.922;2023-05-18T01:35:33;2.20;;;1.70;;
2404;SDS011;1213;43.206;27.922;2023-05-18T01:37:58;2.53;;;1.60;;
2404;SDS011;1213;43.206;27.922;2023-05-18T01:40:24;3.30;;;1.60;;
2404;SDS011;1213;43.206;27.922;2023-05-18T01:42:50;5.10;;;3.40;;
2404;SDS011;1213;43.206;27.922;2023-05-18T01:45:20;2.97;;;1.30;;
2404;SDS011;1213;43.206;27.922;2023-05-18T01:47:47;2.13;;;1.30;;
2404;SDS011;1213;43.206;27.922;2023-05-18T01:50:13;2.43;;;1.50;;
2404;SDS011;1213;43.206;27.922;2023-05-18T01:55:09;5.33;;;1.30;;
2404;SDS011;1213;43.206;27.922;2023-05-18T01:57:35;2.20;;;1.33;;
2404;SDS011;1213;43.206;27.922;2023-05-18T02:00:02;3.17;;;1.47;;
2404;SDS011;1213;43.206;27.922;2023-05-18T02:02:31;3.47;;;1.57;;
2404;SDS011;1213;43.206;27.922;2023-05-18T02:04:56;1.57;;;1.17;;
2404;SDS011;1213;43.206;27.922;2023-05-18T02:07:22;1.50;;;1.40;;
2404;SDS011;1213;43.206;27.922;2023-05-18T02:09:47;1.57;;;1.27;;
2404;SDS011;1213;43.206;27.922;2023-05-18T02:12:12;1.93;;;1.20;;
2404;SDS011;1213;43.206;27.922;2023-05-18T02:14:38;1.67;;;1.57;;
2404;SDS011;1213;43.206;27.922;2023-05-18T02:17:03;4.70;;;1.57;;
2404;SDS011;1213;43.206;27.922;2023-05-18T02:19:31;4.27;;;1.90;;
2404;SDS011;1213;43.206;27.922;2023-05-18T02:21:56;4.30;;;1.37;;
2404;SDS011;1213;43.206;27.922;2023-05-18T02:24:22;4.77;;;1.23;;
2404;SDS011;1213;43.206;27.922;2023-05-18T02:26:47;4.37;;;1.63;;
2404;SDS011;1213;43.206;27.922;2023-05-18T02:29:12;1.53;;;1.43;;
2404;SDS011;1213;43.206;27.922;2023-05-18T02:31:38;1.90;;;1.50;;
2404;SDS011;1213;43.206;27.922;2023-05-18T02:34:03;2.60;;;1.33;;
2404;SDS011;1213;43.206;27.922;2023-05-18T02:36:29;2.10;;;1.40;;
2404;SDS011;1213;43.206;27.922;2023-05-18T02:39:04;4.03;;;1.63;;
2404;SDS011;1213;43.206;27.922;2023-05-18T02:41:30;1.77;;;1.53;;
2404;SDS011;1213;43.206;27.922;2023-05-18T02:43:55;2.10;;;1.57;;
2404;SDS011;1213;43.206;27.922;2023-05-18T02:46:20;1.93;;;1.73;;
2404;SDS011;1213;43.206;27.922;2023-05-18T02:48:46;1.83;;;1.47;;
2404;SDS011;1213;43.206;27.922;2023-05-18T02:51:12;2.77;;;1.47;;
2404;SDS011;1213;43.206;27.922;2023-05-18T02:53:37;2.40;;;1.53;;
2404;SDS011;1213;43.206;27.922;2023-05-18T02:56:03;2.40;;;1.57;;
2404;SDS011;1213;43.206;27.922;2023-05-18T02:58:28;8.97;;;3.83;;
2404;SDS011;1213;43.206;27.922;2023-05-18T03:00:55;3.40;;;2.00;;
2404;SDS011;1213;43.206;27.922;2023-05-18T03:03:20;4.20;;;2.90;;
2404;SDS011;1213;43.206;27.922;2023-05-18T03:05:47;3.33;;;1.87;;
2404;SDS011;1213;43.206;27.922;2023-05-18T03:08:13;2.40;;;1.90;;
2404;SDS011;1213;43.206;27.922;2023-05-18T03:10:38;3.10;;;2.07;;
2404;SDS011;1213;43.206;27.922;2023-05-18T03:13:03;1.77;;;1.63;;
2404;SDS011;1213;43.206;27.922;2023-05-18T03:15:29;2.20;;;1.50;;
2404;SDS011;1213;43.206;27.922;2023-05-18T03:17:55;2.50;;;1.80;;
2404;SDS011;1213;43.206;27.922;2023-05-18T03:20:23;3.63;;;1.70;;
2404;SDS011;1213;43.206;27.922;2023-05-18T03:22:48;2.27;;;1.93;;
2404;SDS011;1213;43.206;27.922;2023-05-18T03:25:14;3.50;;;2.10;;
2404;SDS011;1213;43.206;27.922;2023-05-18T03:27:40;3.97;;;2.17;;
2404;SDS011;1213;43.206;27.922;2023-05-18T03:30:05;3.10;;;1.83;;
2404;SDS011;1213;43.206;27.922;2023-05-18T03:32:31;5.33;;;1.93;;
2404;SDS011;1213;43.206;27.922;2023-05-18T03:34:57;2.50;;;1.63;;
2404;SDS011;1213;43.206;27.922;2023-05-18T03:37:25;3.10;;;2.07;;
2404;SDS011;1213;43.206;27.922;2023-05-18T03:39:50;5.20;;;2.10;;
2404;SDS011;1213;43.206;27.922;2023-05-18T03:42:15;6.20;;;2.00;;
2404;SDS011;1213;43.206;27.922;2023-05-18T03:44:41;5.77;;;1.80;;
2404;SDS011;1213;43.206;27.922;2023-05-18T03:47:06;3.03;;;1.97;;
2404;SDS011;1213;43.206;27.922;2023-05-18T03:49:32;1.90;;;1.80;;
2404;SDS011;1213;43.206;27.922;2023-05-18T03:51:57;2.57;;;2.37;;
2404;SDS011;1213;43.206;27.922;2023-05-18T03:54:23;3.10;;;2.20;;
2404;SDS011;1213;43.206;27.922;2023-05-18T03:56:48;4.10;;;2.20;;
2404;SDS011;1213;43.206;27.922;2023-05-18T03:59:13;4.20;;;2.33;;
2404;SDS011;1213;43.206;27.922;2023-05-18T04:01:39;9.47;;;2.70;;
2404;SDS011;1213;43.206;27.922;2023-05-18T04:04:08;8.73;;;3.40;;
2404;SDS011;1213;43.206;27.922;2023-05-18T04:06:33;4.73;;;2.53;;
2404;SDS011;1213;43.206;27.922;2023-05-18T04:09:04;3.80;;;2.90;;
2404;SDS011;1213;43.206;27.922;2023-05-18T04:11:29;4.23;;;2.73;;
2404;SDS011;1213;43.206;27.922;2023-05-18T04:13:56;2.00;;;1.77;;
2404;SDS011;1213;43.206;27.922;2023-05-18T04:16:25;15.30;;;2.87;;
2404;SDS011;1213;43.206;27.922;2023-05-18T04:18:51;5.80;;;2.67;;
2404;SDS011;1213;43.206;27.922;2023-05-18T04:21:17;7.30;;;2.87;;
2404;SDS011;1213;43.206;27.922;2023-05-18T04:23:43;4.13;;;2.40;;
2404;SDS011;1213;43.206;27.922;2023-05-18T04:26:09;15.60;;;5.73;;
2404;SDS011;1213;43.206;27.922;2023-05-18T04:28:34;2.80;;;2.20;;
2404;SDS011;1213;43.206;27.922;2023-05-18T04:31:01;9.00;;;4.00;;
2404;SDS011;1213;43.206;27.922;2023-05-18T04:33:30;9.30;;;3.43;;
2404;SDS011;1213;43.206;27.922;2023-05-18T04:35:56;7.27;;;3.23;;
2404;SDS011;1213;43.206;27.922;2023-05-18T04:38:25;7.30;;;3.10;;
2404;SDS011;1213;43.206;27.922;2023-05-18T04:40:50;2.40;;;2.20;;
2404;SDS011;1213;43.206;27.922;2023-05-18T04:43:16;6.57;;;4.17;;
2404;SDS011;1213;43.206;27.922;2023-05-18T04:45:43;4.13;;;2.50;;
2404;SDS011;1213;43.206;27.922;2023-05-18T04:48:14;14.17;;;3.20;;
2404;SDS011;1213;43.206;27.922;2023-05-18T04:50:41;11.23;;;3.90;;
2404;SDS011;1213;43.206;27.922;2023-05-18T04:53:07;5.13;;;2.80;;
2404;SDS011;1213;43.206;27.922;2023-05-18T04:55:33;3.40;;;2.57;;
2404;SDS011;1213;43.206;27.922;2023-05-18T04:57:59;4.97;;;3.07;;
2404;SDS011;1213;43.206;27.922;2023-05-18T05:00:26;4.80;;;2.50;;
2404;SDS011;1213;43.206;27.922;2023-05-18T05:02:53;7.17;;;2.37;;
2404;SDS011;1213;43.206;27.922;2023-05-18T05:05:18;2.00;;;1.90;;
2404;SDS011;1213;43.206;27.922;2023-05-18T05:07:44;2.37;;;2.17;;
2404;SDS011;1213;43.206;27.922;2023-05-18T05:10:09;25.47;;;3.67;;
2404;SDS011;1213;43.206;27.922;2023-05-18T05:12:38;7.07;;;2.30;;
2404;SDS011;1213;43.206;27.922;2023-05-18T05:15:03;9.63;;;2.67;;
2404;SDS011;1213;43.206;27.922;2023-05-18T05:17:28;6.60;;;2.50;;
2404;SDS011;1213;43.206;27.922;2023-05-18T05:19:54;7.17;;;2.53;;
2404;SDS011;1213;43.206;27.922;2023-05-18T05:22:19;2.67;;;2.03;;
2404;SDS011;1213;43.206;27.922;2023-05-18T05:24:45;5.90;;;2.67;;
2404;SDS011;1213;43.206;27.922;2023-05-18T05:27:10;8.17;;;2.40;;
2404;SDS011;1213;43.206;27.922;2023-05-18T05:29:35;3.67;;;2.20;;
2404;SDS011;1213;43.206;27.922;2023-05-18T05:32:00;3.07;;;2.63;;
2404;SDS011;1213;43.206;27.922;2023-05-18T05:34:26;2.40;;;2.20;;
2404;SDS011;1213;43.206;27.922;2023-05-18T05:36:51;6.60;;;2.37;;
2404;SDS011;1213;43.206;27.922;2023-05-18T05:39:16;2.77;;;2.57;;
2404;SDS011;1213;43.206;27.922;2023-05-18T05:41:42;4.90;;;2.20;;
2404;SDS011;1213;43.206;27.922;2023-05-18T05:44:07;4.70;;;1.80;;
2404;SDS011;1213;43.206;27.922;2023-05-18T05:46:32;3.07;;;2.57;;
2404;SDS011;1213;43.206;27.922;2023-05-18T05:48:58;4.63;;;3.00;;
2404;SDS011;1213;43.206;27.922;2023-05-18T05:51:24;5.93;;;2.13;;
2404;SDS011;1213;43.206;27.922;2023-05-18T05:53:50;3.60;;;2.83;;
2404;SDS011;1213;43.206;27.922;2023-05-18T05:56:17;3.30;;;2.33;;
2404;SDS011;1213;43.206;27.922;2023-05-18T05:58:45;4.17;;;2.50;;
2404;SDS011;1213;43.206;27.922;2023-05-18T06:01:10;4.03;;;2.43;;
2404;SDS011;1213;43.206;27.922;2023-05-18T06:03:36;5.00;;;2.90;;
2404;SDS011;1213;43.206;27.922;2023-05-18T06:06:01;4.20;;;2.17;;
2404;SDS011;1213;43.206;27.922;2023-05-18T06:08:26;4.97;;;2.67;;
2404;SDS011;1213;43.206;27.922;2023-05-18T06:10:52;8.23;;;3.93;;
2404;SDS011;1213;43.206;27.922;2023-05-18T06:13:17;2.07;;;1.97;;
2404;SDS011;1213;43.206;27.922;2023-05-18T06:15:42;9.83;;;2.70;;
2404;SDS011;1213;43.206;27.922;2023-05-18T06:18:08;8.90;;;2.87;;
2404;SDS011;1213;43.206;27.922;2023-05-18T06:20:33;7.10;;;2.37;;
2404;SDS011;1213;43.206;27.922;2023-05-18T06:22:58;9.37;;;5.70;;
2404;SDS011;1213;43.206;27.922;2023-05-18T06:25:24;2.40;;;2.20;;
2404;SDS011;1213;43.206;27.922;2023-05-18T06:27:49;6.47;;;2.80;;
2404;SDS011;1213;43.206;27.922;2023-05-18T06:30:14;2.53;;;1.90;;
2404;SDS011;1213;43.206;27.922;2023-05-18T06:32:40;2.53;;;2.20;;
2404;SDS011;1213;43.206;27.922;2023-05-18T06:35:05;6.97;;;3.40;;
2404;SDS011;1213;43.206;27.922;2023-05-18T06:37:31;2.80;;;2.60;;
2404;SDS011;1213;43.206;27.922;2023-05-18T06:39:57;10.03;;;3.63;;
2404;SDS011;1213;43.206;27.922;2023-05-18T06:42:22;3.03;;;2.30;;
2404;SDS011;1213;43.206;27.922;2023-05-18T06:44:47;9.87;;;2.10;;
2404;SDS011;1213;43.206;27.922;2023-05-18T06:47:14;10.30;;;2.90;;
2404;SDS011;1213;43.206;27.922;2023-05-18T06:49:39;6.77;;;3.03;;
2404;SDS011;1213;43.206;27.922;2023-05-18T06:52:05;3.47;;;2.80;;
2404;SDS011;1213;43.206;27.922;2023-05-18T06:54:31;3.50;;;2.60;;
2404;SDS011;1213;43.206;27.922;2023-05-18T06:56:57;2.77;;;1.90;;
2404;SDS011;1213;43.206;27.922;2023-05-18T06:59:22;2.60;;;2.30;;
2404;SDS011;1213;43.206;27.922;2023-05-18T07:01:47;2.80;;;2.10;;
2404;SDS011;1213;43.206;27.922;2023-05-18T07:04:12;2.57;;;2.37;;
2404;SDS011;1213;43.206;27.922;2023-05-18T07:06:38;5.13;;;2.97;;
2404;SDS011;1213;43.206;27.922;2023-05-18T07:09:03;5.63;;;2.20;;
2404;SDS011;1213;43.206;27.922;2023-05-18T07:11:29;2.80;;;2.30;;
2404;SDS011;1213;43.206;27.922;2023-05-18T07:13:54;2.97;;;2.40;;
2404;SDS011;1213;43.206;27.922;2023-05-18T07:16:19;3.30;;;2.33;;
2404;SDS011;1213;43.206;27.922;2023-05-18T07:18:45;3.03;;;2.10;;
2404;SDS011;1213;43.206;27.922;2023-05-18T07:21:11;3.57;;;1.93;;
2404;SDS011;1213;43.206;27.922;2023-05-18T07:23:36;5.20;;;3.37;;
2404;SDS011;1213;43.206;27.922;2023-05-18T07:26:01;6.80;;;2.67;;
2404;SDS011;1213;43.206;27.922;2023-05-18T07:28:26;2.90;;;2.27;;
2404;SDS011;1213;43.206;27.922;2023-05-18T07:30:52;3.47;;;2.50;;
2404;SDS011;1213;43.206;27.922;2023-05-18T07:33:18;6.13;;;3.00;;
2404;SDS011;1213;43.206;27.922;2023-05-18T07:35:43;3.47;;;2.50;;
2404;SDS011;1213;43.206;27.922;2023-05-18T07:38:09;3.83;;;2.93;;
2404;SDS011;1213;43.206;27.922;2023-05-18T07:40:34;3.30;;;3.00;;
2404;SDS011;1213;43.206;27.922;2023-05-18T07:42:59;5.63;;;2.70;;
2404;SDS011;1213;43.206;27.922;2023-05-18T07:45:25;7.63;;;2.70;;
2404;SDS011;1213;43.206;27.922;2023-05-18T07:47:50;5.67;;;3.17;;
2404;SDS011;1213;43.206;27.922;2023-05-18T07:50:16;9.60;;;3.53;;
2404;SDS011;1213;43.206;27.922;2023-05-18T07:52:41;4.13;;;2.60;;
2404;SDS011;1213;43.206;27.922;2023-05-18T07:55:06;4.87;;;3.07;;
2404;SDS011;1213;43.206;27.922;2023-05-18T07:57:33;3.90;;;3.30;;
2404;SDS011;1213;43.206;27.922;2023-05-18T07:59:59;5.27;;;3.73;;
2404;SDS011;1213;43.206;27.922;2023-05-18T08:02:24;5.53;;;4.00;;
2404;SDS011;1213;43.206;27.922;2023-05-18T08:04:49;3.30;;;3.00;;
2404;SDS011;1213;43.206;27.922;2023-05-18T08:07:15;7.00;;;4.03;;
2404;SDS011;1213;43.206;27.922;2023-05-18T08:09:42;6.30;;;3.00;;
2404;SDS011;1213;43.206;27.922;2023-05-18T08:12:08;4.97;;;3.73;;
2404;SDS011;1213;43.206;27.922;2023-05-18T08:14:33;4.57;;;3.27;;
2404;SDS011;1213;43.206;27.922;2023-05-18T08:16:58;6.93;;;4.23;;
2404;SDS011;1213;43.206;27.922;2023-05-18T08:19:24;3.40;;;2.73;;
2404;SDS011;1213;43.206;27.922;2023-05-18T08:21:49;3.53;;;3.23;;
2404;SDS011;1213;43.206;27.922;2023-05-18T08:24:15;5.67;;;3.30;;
2404;SDS011;1213;43.206;27.922;2023-05-18T08:26:40;8.67;;;4.00;;
2404;SDS011;1213;43.206;27.922;2023-05-18T08:29:05;7.27;;;4.13;;
2404;SDS011;1213;43.206;27.922;2023-05-18T08:31:34;3.97;;;3.57;;
2404;SDS011;1213;43.206;27.922;2023-05-18T08:34:00;7.00;;;3.83;;
2404;SDS011;1213;43.206;27.922;2023-05-18T08:36:25;5.70;;;4.30;;
2404;SDS011;1213;43.206;27.922;2023-05-18T08:38:51;6.83;;;4.07;;
2404;SDS011;1213;43.206;27.922;2023-05-18T08:43:44;4.53;;;4.03;;
2404;SDS011;1213;43.206;27.922;2023-05-18T08:46:20;6.20;;;3.30;;
2404;SDS011;1213;43.206;27.922;2023-05-18T08:48:50;8.00;;;4.07;;
2404;SDS011;1213;43.206;27.922;2023-05-18T08:51:17;8.23;;;6.00;;
2404;SDS011;1213;43.206;27.922;2023-05-18T08:53:43;5.27;;;4.53;;
2404;SDS011;1213;43.206;27.922;2023-05-18T08:56:15;10.23;;;5.90;;
2404;SDS011;1213;43.206;27.922;2023-05-18T08:58:43;28.83;;;20.30;;
2404;SDS011;1213;43.206;27.922;2023-05-18T09:01:08;7.47;;;6.20;;
2404;SDS011;1213;43.206;27.922;2023-05-18T09:03:33;12.97;;;8.53;;
2404;SDS011;1213;43.206;27.922;2023-05-18T09:05:59;8.37;;;5.50;;
2404;SDS011;1213;43.206;27.922;2023-05-18T09:08:24;5.97;;;5.10;;
2404;SDS011;1213;43.206;27.922;2023-05-18T09:10:50;10.10;;;5.20;;
2404;SDS011;1213;43.206;27.922;2023-05-18T09:13:17;10.03;;;6.13;;
2404;SDS011;1213;43.206;27.922;2023-05-18T09:15:44;9.97;;;8.97;;
2404;SDS011;1213;43.206;27.922;2023-05-18T09:18:10;10.23;;;6.00;;
2404;SDS011;1213;43.206;27.922;2023-05-18T09:20:41;10.60;;;7.47;;
2404;SDS011;1213;43.206;27.922;2023-05-18T09:23:06;9.60;;;5.97;;
2404;SDS011;1213;43.206;27.922;2023-05-18T09:25:33;9.47;;;6.17;;
2404;SDS011;1213;43.206;27.922;2023-05-18T09:28:01;8.20;;;6.07;;
2404;SDS011;1213;43.206;27.922;2023-05-18T09:30:27;9.50;;;4.70;;
2404;SDS011;1213;43.206;27.922;2023-05-18T09:32:52;10.17;;;7.07;;
2404;SDS011;1213;43.206;27.922;2023-05-18T09:35:18;10.20;;;5.77;;
2404;SDS011;1213;43.206;27.922;2023-05-18T09:37:43;7.80;;;5.80;;
2404;SDS011;1213;43.206;27.922;2023-05-18T09:40:08;11.50;;;6.40;;
2404;SDS011;1213;43.206;27.922;2023-05-18T09:42:41;6.70;;;5.60;;
2404;SDS011;1213;43.206;27.922;2023-05-18T09:45:18;7.93;;;6.10;;
2404;SDS011;1213;43.206;27.922;2023-05-18T09:47:44;9.60;;;7.30;;
2404;SDS011;1213;43.206;27.922;2023-05-18T09:50:09;11.00;;;6.00;;
2404;SDS011;1213;43.206;27.922;2023-05-18T09:52:41;5.97;;;5.37;;
2404;SDS011;1213;43.206;27.922;2023-05-18T09:55:07;6.97;;;5.87;;
2404;SDS011;1213;43.206;27.922;2023-05-18T09:57:37;5.90;;;4.40;;
2404;SDS011;1213;43.206;27.922;2023-05-18T10:00:03;5.30;;;4.80;;
2404;SDS011;1213;43.206;27.922;2023-05-18T10:02:36;7.43;;;6.57;;
2404;SDS011;1213;43.206;27.922;2023-05-18T10:05:01;11.17;;;7.30;;
2404;SDS011;1213;43.206;27.922;2023-05-18T10:07:27;8.80;;;7.10;;
2404;SDS011;1213;43.206;27.922;2023-05-18T10:09:59;12.90;;;7.90;;
2404;SDS011;1213;43.206;27.922;2023-05-18T10:12:26;7.60;;;6.43;;
2404;SDS011;1213;43.206;27.922;2023-05-18T10:14:51;11.43;;;6.10;;
2404;SDS011;1213;43.206;27.922;2023-05-18T10:17:17;5.73;;;5.17;;
2404;SDS011;1213;43.206;27.922;2023-05-18T10:19:43;8.63;;;6.30;;
2404;SDS011;1213;43.206;27.922;2023-05-18T10:22:08;9.40;;;6.87;;
2404;SDS011;1213;43.206;27.922;2023-05-18T10:24:35;7.20;;;5.23;;
2404;SDS011;1213;43.206;27.922;2023-05-18T10:27:03;6.97;;;4.93;;
2404;SDS011;1213;43.206;27.922;2023-05-18T10:29:30;8.50;;;5.63;;
2404;SDS011;1213;43.206;27.922;2023-05-18T10:31:56;8.50;;;5.60;;
2404;SDS011;1213;43.206;27.922;2023-05-18T10:34:27;8.30;;;6.67;;
2404;SDS011;1213;43.206;27.922;2023-05-18T10:36:52;7.03;;;5.63;;
2404;SDS011;1213;43.206;27.922;2023-05-18T10:39:18;16.73;;;7.43;;
2404;SDS011;1213;43.206;27.922;2023-05-18T10:41:44;7.13;;;5.77;;
2404;SDS011;1213;43.206;27.922;2023-05-18T10:44:11;7.90;;;6.53;;
2404;SDS011;1213;43.206;27.922;2023-05-18T10:46:36;7.07;;;6.10;;
2404;SDS011;1213;43.206;27.922;2023-05-18T10:49:02;7.70;;;5.67;;
2404;SDS011;1213;43.206;27.922;2023-05-18T10:51:29;6.03;;;5.13;;
2404;SDS011;1213;43.206;27.922;2023-05-18T10:53:56;5.57;;;4.60;;
2404;SDS011;1213;43.206;27.922;2023-05-18T10:56:31;4.63;;;4.10;;
2404;SDS011;1213;43.206;27.922;2023-05-18T10:58:59;7.20;;;5.27;;
2404;SDS011;1213;43.206;27.922;2023-05-18T11:01:25;5.47;;;4.97;;
2404;SDS011;1213;43.206;27.922;2023-05-18T11:03:50;9.40;;;6.03;;
2404;SDS011;1213;43.206;27.922;2023-05-18T11:06:15;10.57;;;5.50;;
2404;SDS011;1213;43.206;27.922;2023-05-18T11:08:48;15.27;;;8.03;;
2404;SDS011;1213;43.206;27.922;2023-05-18T11:11:14;16.33;;;7.73;;
2404;SDS011;1213;43.206;27.922;2023-05-18T11:13:43;21.23;;;9.80;;
2404;SDS011;1213;43.206;27.922;2023-05-18T11:16:09;20.20;;;9.00;;
2404;SDS011;1213;43.206;27.922;2023-05-18T11:18:36;13.43;;;8.27;;
2404;SDS011;1213;43.206;27.922;2023-05-18T11:21:01;19.63;;;10.60;;
2404;SDS011;1213;43.206;27.922;2023-05-18T11:23:30;17.77;;;11.50;;
2404;SDS011;1213;43.206;27.922;2023-05-18T11:25:58;20.07;;;11.00;;
2404;SDS011;1213;43.206;27.922;2023-05-18T11:28:26;13.40;;;10.87;;
2404;SDS011;1213;43.206;27.922;2023-05-18T11:30:52;13.93;;;10.47;;
2404;SDS011;1213;43.206;27.922;2023-05-18T11:36:01;16.93;;;11.87;;
2404;SDS011;1213;43.206;27.922;2023-05-18T11:46:31;16.43;;;10.43;;
2404;SDS011;1213;43.206;27.922;2023-05-18T11:48:56;14.20;;;10.73;;
2404;SDS011;1213;43.206;27.922;2023-05-18T11:51:26;17.83;;;11.63;;
2404;SDS011;1213;43.206;27.922;2023-05-18T11:53:55;21.17;;;12.30;;
2404;SDS011;1213;43.206;27.922;2023-05-18T11:56:20;35.50;;;23.20;;
2404;SDS011;1213;43.206;27.922;2023-05-18T11:59:09;19.17;;;11.83;;
2404;SDS011;1213;43.206;27.922;2023-05-18T12:01:34;16.70;;;10.43;;
2404;SDS011;1213;43.206;27.922;2023-05-18T12:03:59;14.33;;;9.13;;
2404;SDS011;1213;43.206;27.922;2023-05-18T12:06:24;12.53;;;7.37;;
2404;SDS011;1213;43.206;27.922;2023-05-18T12:08:50;9.37;;;7.10;;
2404;SDS011;1213;43.206;27.922;2023-05-18T12:11:16;7.60;;;4.77;;
2404;SDS011;1213;43.206;27.922;2023-05-18T12:13:41;5.50;;;4.83;;
2404;SDS011;1213;43.206;27.922;2023-05-18T12:16:07;7.70;;;4.50;;
2404;SDS011;1213;43.206;27.922;2023-05-18T12:18:48;4.93;;;4.30;;
2404;SDS011;1213;43.206;27.922;2023-05-18T12:21:14;6.20;;;4.67;;
2404;SDS011;1213;43.206;27.922;2023-05-18T12:23:41;4.93;;;4.47;;
2404;SDS011;1213;43.206;27.922;2023-05-18T12:26:06;10.13;;;5.00;;
2404;SDS011;1213;43.206;27.922;2023-05-18T12:28:32;18.60;;;5.27;;
2404;SDS011;1213;43.206;27.922;2023-05-18T12:30:57;12.63;;;6.47;;
2404;SDS011;1213;43.206;27.922;2023-05-18T12:33:24;5.30;;;4.80;;
2404;SDS011;1213;43.206;27.922;2023-05-18T12:35:49;6.10;;;5.03;;
2404;SDS011;1213;43.206;27.922;2023-05-18T12:38:15;8.33;;;4.50;;
2404;SDS011;1213;43.206;27.922;2023-05-18T12:40:41;6.23;;;4.40;;
2404;SDS011;1213;43.206;27.922;2023-05-18T12:43:12;11.07;;;5.40;;
2404;SDS011;1213;43.206;27.922;2023-05-18T12:45:37;9.57;;;5.20;;
2404;SDS011;1213;43.206;27.922;2023-05-18T12:48:03;4.97;;;4.57;;
2404;SDS011;1213;43.206;27.922;2023-05-18T12:50:28;8.53;;;4.63;;
2404;SDS011;1213;43.206;27.922;2023-05-18T12:52:54;6.87;;;4.80;;
2404;SDS011;1213;43.206;27.922;2023-05-18T12:55:20;5.20;;;4.60;;
2404;SDS011;1213;43.206;27.922;2023-05-18T12:58:31;5.10;;;4.13;;
2404;SDS011;1213;43.206;27.922;2023-05-18T13:00:32;11.17;;;4.87;;
2404;SDS011;1213;43.206;27.922;2023-05-18T13:03:08;8.53;;;4.80;;
2404;SDS011;1213;43.206;27.922;2023-05-18T13:05:33;8.50;;;4.60;;
2404;SDS011;1213;43.206;27.922;2023-05-18T13:07:59;5.13;;;4.63;;
2404;SDS011;1213;43.206;27.922;2023-05-18T13:10:24;18.43;;;6.03;;
2404;SDS011;1213;43.206;27.922;2023-05-18T13:12:54;9.47;;;5.30;;
2404;SDS011;1213;43.206;27.922;2023-05-18T13:15:23;13.53;;;5.37;;
2404;SDS011;1213;43.206;27.922;2023-05-18T13:20:16;6.53;;;4.60;;
2404;SDS011;1213;43.206;27.922;2023-05-18T13:22:42;9.10;;;4.90;;
2404;SDS011;1213;43.206;27.922;2023-05-18T13:25:07;7.67;;;4.80;;
2404;SDS011;1213;43.206;27.922;2023-05-18T13:27:33;6.03;;;4.80;;
2404;SDS011;1213;43.206;27.922;2023-05-18T13:29:58;8.20;;;5.10;;
2404;SDS011;1213;43.206;27.922;2023-05-18T13:32:24;6.50;;;4.80;;
2404;SDS011;1213;43.206;27.922;2023-05-18T13:34:49;7.13;;;5.60;;
2404;SDS011;1213;43.206;27.922;2023-05-18T13:37:16;8.60;;;4.93;;
2404;SDS011;1213;43.206;27.922;2023-05-18T13:39:41;5.83;;;5.20;;
2404;SDS011;1213;43.206;27.922;2023-05-18T13:42:07;5.40;;;4.30;;
2404;SDS011;1213;43.206;27.922;2023-05-18T13:44:32;7.00;;;6.40;;
2404;SDS011;1213;43.206;27.922;2023-05-18T13:46:58;6.80;;;4.50;;
2404;SDS011;1213;43.206;27.922;2023-05-18T13:49:23;7.60;;;4.60;;
2404;SDS011;1213;43.206;27.922;2023-05-18T13:51:48;8.77;;;5.27;;
2404;SDS011;1213;43.206;27.922;2023-05-18T13:54:13;7.47;;;4.97;;
2404;SDS011;1213;43.206;27.922;2023-05-18T13:56:39;5.37;;;4.87;;
2404;SDS011;1213;43.206;27.922;2023-05-18T13:59:05;7.23;;;5.10;;
2404;SDS011;1213;43.206;27.922;2023-05-18T14:01:30;5.47;;;4.47;;
2404;SDS011;1213;43.206;27.922;2023-05-18T14:03:56;8.03;;;5.23;;
2404;SDS011;1213;43.206;27.922;2023-05-18T14:06:22;6.20;;;4.97;;
2404;SDS011;1213;43.206;27.922;2023-05-18T14:08:48;7.23;;;4.60;;
2404;SDS011;1213;43.206;27.922;2023-05-18T14:11:13;10.10;;;4.90;;
2404;SDS011;1213;43.206;27.922;2023-05-18T14:13:38;5.03;;;4.53;;
2404;SDS011;1213;43.206;27.922;2023-05-18T14:16:03;13.50;;;5.37;;
2404;SDS011;1213;43.206;27.922;2023-05-18T14:18:29;7.40;;;6.17;;
2404;SDS011;1213;43.206;27.922;2023-05-18T14:20:54;11.40;;;6.63;;
2404;SDS011;1213;43.206;27.922;2023-05-18T14:23:21;7.30;;;5.50;;
2404;SDS011;1213;43.206;27.922;2023-05-18T14:25:48;7.20;;;5.60;;
2404;SDS011;1213;43.206;27.922;2023-05-18T14:28:13;7.33;;;6.60;;
2404;SDS011;1213;43.206;27.922;2023-05-18T14:30:38;5.67;;;5.10;;
2404;SDS011;1213;43.206;27.922;2023-05-18T14:33:04;7.63;;;6.30;;
2404;SDS011;1213;43.206;27.922;2023-05-18T14:35:29;11.70;;;5.57;;
2404;SDS011;1213;43.206;27.922;2023-05-18T14:37:55;7.13;;;5.73;;
2404;SDS011;1213;43.206;27.922;2023-05-18T14:40:20;15.60;;;6.13;;
2404;SDS011;1213;43.206;27.922;2023-05-18T14:42:45;8.70;;;5.83;;
2404;SDS011;1213;43.206;27.922;2023-05-18T14:45:11;6.03;;;5.50;;
2404;SDS011;1213;43.206;27.922;2023-05-18T14:47:36;10.10;;;6.53;;
2404;SDS011;1213;43.206;27.922;2023-05-18T14:50:01;9.37;;;5.60;;
2404;SDS011;1213;43.206;27.922;2023-05-18T14:52:26;9.07;;;5.40;;
2404;SDS011;1213;43.206;27.922;2023-05-18T14:54:52;8.27;;;5.60;;
2404;SDS011;1213;43.206;27.922;2023-05-18T14:57:17;10.20;;;5.73;;
2404;SDS011;1213;43.206;27.922;2023-05-18T14:59:42;5.93;;;5.03;;
2404;SDS011;1213;43.206;27.922;2023-05-18T15:02:07;9.20;;;6.20;;
2404;SDS011;1213;43.206;27.922;2023-05-18T15:04:33;13.47;;;7.73;;
2404;SDS011;1213;43.206;27.922;2023-05-18T15:06:58;48.70;;;32.37;;
2404;SDS011;1213;43.206;27.922;2023-05-18T15:09:24;7.60;;;6.47;;
2404;SDS011;1213;43.206;27.922;2023-05-18T15:11:49;7.90;;;6.20;;
2404;SDS011;1213;43.206;27.922;2023-05-18T15:14:16;6.53;;;5.40;;
2404;SDS011;1213;43.206;27.922;2023-05-18T15:16:41;9.50;;;6.33;;
2404;SDS011;1213;43.206;27.922;2023-05-18T15:19:06;7.47;;;6.17;;
2404;SDS011;1213;43.206;27.922;2023-05-18T15:21:32;9.03;;;6.20;;